createdAt,value
2022-10-17T00:00:55.249Z,99.83
2022-10-17T00:01:55.272Z,99.83
2022-10-17T00:02:55.226Z,99.83
2022-10-17T00:03:55.208Z,99.83
2022-10-17T00:04:55.195Z,99.83
2022-10-17T00:05:55.186Z,99.83
2022-10-17T00:06:55.329Z,99.83
2022-10-17T00:07:55.158Z,99.83
2022-10-17T00:08:55.152Z,99.83
2022-10-17T00:09:55.129Z,99.83
2022-10-17T00:10:55.118Z,99.83
2022-10-17T00:11:55.119Z,99.83
2022-10-17T00:12:55.089Z,99.83
2022-10-17T00:13:55.079Z,99.83
2022-10-17T00:14:55.060Z,99.83
2022-10-17T00:15:55.072Z,99.83
2022-10-17T00:16:55.031Z,99.73
2022-10-17T00:17:55.024Z,99.83
2022-10-17T00:18:55.001Z,99.73
2022-10-17T00:19:54.991Z,99.73
2022-10-17T00:20:54.982Z,99.73
2022-10-17T00:21:54.990Z,99.73
2022-10-17T00:22:54.954Z,99.62
2022-10-17T00:23:54.941Z,99.52
2022-10-17T00:24:54.931Z,99.62
2022-10-17T00:25:54.912Z,99.52
2022-10-17T00:26:54.921Z,99.52
2022-10-17T00:27:54.883Z,99.52
2022-10-17T00:28:54.937Z,99.52
2022-10-17T00:29:54.853Z,99.52
2022-10-17T00:30:54.854Z,99.52
2022-10-17T00:32:54.823Z,99.42
2022-10-17T00:33:54.811Z,99.32
2022-10-17T00:34:54.794Z,99.32
2022-10-17T00:35:54.774Z,99.42
2022-10-17T00:36:54.784Z,99.42
2022-10-17T00:37:54.754Z,99.42
2022-10-17T00:38:54.745Z,99.42
2022-10-17T00:39:54.724Z,99.32
2022-10-17T00:41:54.715Z,99.32
2022-10-17T00:42:54.689Z,99.32
2022-10-17T00:43:54.673Z,99.22
2022-10-17T00:44:54.656Z,99.32
2022-10-17T00:45:54.646Z,99.22
2022-10-17T00:46:54.654Z,99.22
2022-10-17T00:47:54.616Z,99.22
2022-10-17T00:48:54.618Z,99.22
2022-10-17T00:49:54.640Z,99.22
2022-10-17T00:50:54.604Z,99.22
2022-10-17T00:51:54.569Z,99.22
2022-10-17T00:52:54.558Z,99.22
2022-10-17T00:53:54.537Z,99.12
2022-10-17T00:54:54.528Z,99.12
2022-10-17T00:55:54.509Z,99.12
2022-10-17T00:56:54.518Z,99.02
2022-10-17T00:57:54.478Z,99.02
2022-10-17T00:58:54.525Z,98.92
2022-10-17T00:59:54.461Z,99.02
2022-10-17T01:00:54.460Z,98.87
2022-10-17T01:01:54.449Z,98.92
2022-10-17T01:02:54.419Z,98.77
2022-10-17T01:03:54.407Z,98.82
2022-10-17T01:04:54.401Z,98.82
2022-10-17T01:05:54.380Z,98.67
2022-10-17T01:06:54.393Z,98.67
2022-10-17T01:07:54.350Z,98.67
2022-10-17T01:08:54.342Z,98.57
2022-10-17T01:09:54.329Z,98.57
2022-10-17T01:10:54.350Z,98.47
2022-10-17T01:11:54.304Z,98.36
2022-10-17T01:12:54.292Z,98.36
2022-10-17T01:13:54.277Z,98.51
2022-10-17T01:14:54.263Z,98.47
2022-10-17T01:15:54.263Z,98.51
2022-10-17T01:16:54.233Z,98.51
2022-10-17T01:17:54.222Z,98.51
2022-10-17T01:18:54.214Z,98.61
2022-10-17T01:19:54.195Z,98.61
2022-10-17T01:20:54.200Z,98.61
2022-10-17T01:21:54.164Z,98.51
2022-10-17T01:22:54.161Z,98.51
2022-10-17T01:23:54.144Z,98.51
2022-10-17T01:24:54.135Z,98.61
2022-10-17T01:25:54.125Z,98.51
2022-10-17T01:26:54.105Z,98.51
2022-10-17T01:27:54.084Z,98.41
2022-10-17T01:28:54.076Z,98.31
2022-10-17T01:29:54.067Z,98.36
2022-10-17T01:30:54.066Z,98.31
2022-10-17T01:31:54.035Z,98.31
2022-10-17T01:32:54.026Z,98.31
2022-10-17T01:33:54.006Z,98.31
2022-10-17T01:34:54.022Z,98.41
2022-10-17T01:35:53.996Z,98.41
2022-10-17T01:36:53.968Z,98.31
2022-10-17T01:37:53.958Z,98.27
2022-10-17T01:38:53.936Z,98.21
2022-10-17T01:39:53.930Z,98.11
2022-10-17T01:40:53.927Z,98.11
2022-10-17T01:41:53.901Z,98.11
2022-10-17T01:42:53.888Z,98.11
2022-10-17T01:43:53.867Z,98.11
2022-10-17T01:44:53.867Z,98.11
2022-10-17T01:45:53.860Z,98.07
2022-10-17T01:46:53.864Z,98.07
2022-10-17T01:47:53.818Z,98.07
2022-10-17T01:48:53.808Z,97.96
2022-10-17T01:49:53.789Z,97.96
2022-10-17T01:50:54.810Z,97.86
2022-10-17T01:51:53.768Z,97.86
2022-10-17T01:52:53.749Z,97.76
2022-10-17T01:53:53.740Z,97.86
2022-10-17T01:54:53.728Z,97.80
2022-10-17T01:55:53.785Z,97.76
2022-10-17T01:56:53.702Z,97.66
2022-10-17T01:57:53.688Z,97.66
2022-10-17T01:58:53.680Z,97.66
2022-10-17T01:59:53.661Z,97.66
2022-10-17T02:00:53.662Z,97.66
2022-10-17T02:01:53.656Z,97.56
2022-10-17T02:02:53.623Z,97.66
2022-10-17T02:03:53.601Z,97.66
2022-10-17T02:04:53.626Z,97.56
2022-10-17T02:05:53.592Z,97.60
2022-10-17T02:06:53.570Z,97.56
2022-10-17T02:07:53.553Z,97.60
2022-10-17T02:08:53.542Z,97.60
2022-10-17T02:09:53.522Z,97.60
2022-10-17T02:10:53.532Z,97.60
2022-10-17T02:11:53.503Z,97.71
2022-10-17T02:12:53.491Z,97.60
2022-10-17T02:13:53.476Z,97.71
2022-10-17T02:14:53.455Z,97.80
2022-10-17T02:15:53.537Z,97.91
2022-10-17T02:16:53.455Z,97.91
2022-10-17T02:17:53.435Z,97.91
2022-10-17T02:18:53.405Z,97.80
2022-10-17T02:19:53.385Z,97.71
2022-10-17T02:20:53.396Z,97.71
2022-10-17T02:21:53.368Z,97.71
2022-10-17T02:22:53.396Z,97.71
2022-10-17T02:23:53.346Z,97.71
2022-10-17T02:24:53.327Z,97.60
2022-10-17T02:25:53.342Z,97.60
2022-10-17T02:26:53.306Z,97.60
2022-10-17T02:27:53.287Z,97.60
2022-10-17T02:28:53.374Z,97.60
2022-10-17T02:29:53.257Z,97.60
2022-10-17T02:30:53.271Z,97.60
2022-10-17T02:31:53.236Z,97.60
2022-10-17T02:32:53.246Z,97.71
2022-10-17T02:33:53.879Z,97.60
2022-10-17T02:34:53.188Z,97.60
2022-10-17T02:35:53.189Z,97.60
2022-10-17T02:36:53.169Z,97.40
2022-10-17T02:37:53.187Z,97.40
2022-10-17T02:38:53.200Z,97.50
2022-10-17T02:39:53.119Z,97.50
2022-10-17T02:40:53.130Z,97.60
2022-10-17T02:41:53.098Z,97.60
2022-10-17T02:42:53.091Z,97.60
2022-10-17T02:43:53.071Z,97.60
2022-10-17T02:44:53.061Z,97.71
2022-10-17T02:45:53.059Z,97.80
2022-10-17T02:46:53.032Z,97.80
2022-10-17T02:47:53.019Z,97.80
2022-10-17T02:48:53.001Z,97.80
2022-10-17T02:49:52.981Z,97.71
2022-10-17T02:50:53.001Z,97.60
2022-10-17T02:51:52.961Z,97.50
2022-10-17T02:52:52.953Z,97.50
2022-10-17T02:53:52.932Z,97.50
2022-10-17T02:54:52.926Z,97.50
2022-10-17T02:55:52.923Z,97.40
2022-10-17T02:56:52.901Z,97.50
2022-10-17T02:57:52.883Z,97.40
2022-10-17T02:58:52.873Z,97.40
2022-10-17T02:59:52.855Z,97.30
2022-10-17T03:00:52.921Z,97.30
2022-10-17T03:01:52.824Z,97.30
2022-10-17T03:02:52.823Z,97.20
2022-10-17T03:03:52.805Z,97.20
2022-10-17T03:04:52.807Z,97.10
2022-10-17T03:05:52.775Z,97.00
2022-10-17T03:06:52.766Z,97.00
2022-10-17T03:07:52.745Z,97.00
2022-10-17T03:08:52.738Z,96.89
2022-10-17T03:09:52.737Z,96.89
2022-10-17T03:10:52.714Z,96.89
2022-10-17T03:11:52.697Z,96.89
2022-10-17T03:12:52.688Z,96.89
2022-10-17T03:13:52.667Z,96.80
2022-10-17T03:14:52.667Z,96.80
2022-10-17T03:15:52.636Z,96.80
2022-10-17T03:16:52.628Z,96.69
2022-10-17T03:17:52.608Z,96.65
2022-10-17T03:18:52.609Z,96.65
2022-10-17T03:19:52.599Z,96.59
2022-10-17T03:20:52.578Z,96.59
2022-10-17T03:21:52.558Z,96.59
2022-10-17T03:22:52.548Z,96.49
2022-10-17T03:23:52.536Z,96.49
2022-10-17T03:24:52.539Z,96.49
2022-10-17T03:25:52.509Z,96.59
2022-10-17T03:26:52.509Z,96.59
2022-10-17T03:27:52.480Z,96.59
2022-10-17T03:28:54.519Z,96.49
2022-10-17T03:29:52.467Z,96.49
2022-10-17T03:30:52.447Z,96.59
2022-10-17T03:31:52.420Z,96.49
2022-10-17T03:32:52.420Z,96.59
2022-10-17T03:33:52.401Z,96.59
2022-10-17T03:34:52.407Z,96.69
2022-10-17T03:35:52.374Z,96.59
2022-10-17T03:36:52.361Z,96.59
2022-10-17T03:37:52.341Z,96.59
2022-10-17T03:38:52.343Z,96.59
2022-10-17T03:39:52.333Z,96.59
2022-10-17T03:40:52.323Z,96.59
2022-10-17T03:41:52.292Z,96.49
2022-10-17T03:42:52.292Z,96.49
2022-10-17T03:43:52.270Z,96.39
2022-10-17T03:44:52.274Z,96.29
2022-10-17T03:45:52.241Z,96.14
2022-10-17T03:46:52.234Z,96.09
2022-10-17T03:47:52.215Z,96.04
2022-10-17T03:48:52.204Z,95.94
2022-10-17T03:49:52.195Z,95.94
2022-10-17T03:50:52.176Z,95.84
2022-10-17T03:51:52.154Z,95.84
2022-10-17T03:52:52.155Z,95.74
2022-10-17T03:53:52.135Z,95.74
2022-10-17T03:54:52.137Z,95.64
2022-10-17T03:55:52.107Z,95.64
2022-10-17T03:56:52.163Z,95.54
2022-10-17T03:57:52.076Z,95.54
2022-10-17T03:58:52.073Z,95.54
2022-10-17T03:59:52.067Z,95.64
2022-10-17T04:00:52.077Z,95.54
2022-10-17T04:01:52.026Z,95.54
2022-10-17T04:02:52.016Z,95.54
2022-10-17T04:03:51.997Z,95.54
2022-10-17T04:04:52.007Z,95.54
2022-10-17T04:05:51.975Z,95.54
2022-10-17T04:06:51.967Z,95.54
2022-10-17T04:07:51.946Z,95.54
2022-10-17T04:08:51.938Z,95.43
2022-10-17T04:09:51.936Z,95.43
2022-10-17T04:10:51.911Z,95.34
2022-10-17T04:11:51.889Z,95.34
2022-10-17T04:12:51.881Z,95.34
2022-10-17T04:13:51.868Z,95.23
2022-10-17T04:14:51.869Z,95.23
2022-10-17T04:15:51.843Z,95.23
2022-10-17T04:16:51.830Z,95.14
2022-10-17T04:17:51.854Z,95.14
2022-10-17T04:18:51.808Z,95.03
2022-10-17T04:19:51.800Z,94.93
2022-10-17T04:20:51.784Z,95.03
2022-10-17T04:21:51.778Z,94.93
2022-10-17T04:22:51.750Z,94.83
2022-10-17T04:23:51.731Z,94.93
2022-10-17T04:24:51.738Z,94.93
2022-10-17T04:25:51.711Z,94.93
2022-10-17T04:26:51.693Z,94.93
2022-10-17T04:27:51.672Z,94.93
2022-10-17T04:28:51.676Z,94.93
2022-10-17T04:29:51.699Z,94.93
2022-10-17T04:30:53.994Z,94.83
2022-10-17T04:31:51.633Z,94.93
2022-10-17T04:32:51.614Z,94.93
2022-10-17T04:33:51.603Z,94.83
2022-10-17T04:34:51.607Z,94.83
2022-10-17T04:35:51.583Z,94.73
2022-10-17T04:36:51.563Z,94.63
2022-10-17T04:37:51.553Z,94.63
2022-10-17T04:38:51.541Z,94.48
2022-10-17T04:39:51.548Z,94.43
2022-10-17T04:40:51.516Z,94.38
2022-10-17T04:41:51.505Z,94.28
2022-10-17T04:42:51.486Z,94.28
2022-10-17T04:43:51.635Z,94.18
2022-10-17T04:44:51.465Z,94.28
2022-10-17T04:45:51.436Z,94.18
2022-10-17T04:46:51.434Z,94.18
2022-10-17T04:47:51.416Z,94.32
2022-10-17T04:48:51.403Z,94.28
2022-10-17T04:49:51.406Z,94.28
2022-10-17T04:52:01.191Z,94.08
2022-10-17T04:53:01.162Z,94.08
2022-10-17T04:54:01.140Z,93.98
2022-10-17T04:55:01.151Z,93.98
2022-10-17T04:56:01.120Z,93.98
2022-10-17T04:57:01.107Z,93.98
2022-10-17T04:58:01.097Z,93.98
2022-10-17T04:59:01.081Z,93.98
2022-10-17T05:00:01.128Z,93.77
2022-10-17T05:01:01.111Z,93.68
2022-10-17T05:02:01.039Z,93.57
2022-10-17T05:03:01.022Z,93.57
2022-10-17T05:04:01.009Z,93.48
2022-10-17T05:05:01.021Z,93.37
2022-10-17T05:06:00.982Z,93.37
2022-10-17T05:07:00.971Z,93.37
2022-10-17T05:08:00.963Z,93.27
2022-10-17T05:09:00.945Z,93.27
2022-10-17T05:10:00.950Z,93.27
2022-10-17T05:11:00.926Z,93.37
2022-10-17T05:12:00.904Z,93.37
2022-10-17T05:13:00.896Z,93.48
2022-10-17T05:14:00.875Z,93.37
2022-10-17T05:15:00.883Z,93.48
2022-10-17T05:16:00.852Z,93.48
2022-10-17T05:17:00.834Z,93.48
2022-10-17T05:18:00.825Z,93.48
2022-10-17T05:19:00.814Z,93.48
2022-10-17T05:20:00.814Z,93.48
2022-10-17T05:21:00.785Z,93.48
2022-10-17T05:22:00.767Z,93.37
2022-10-17T05:23:00.761Z,93.37
2022-10-17T05:24:00.746Z,93.27
2022-10-17T05:25:00.764Z,93.27
2022-10-17T05:26:00.718Z,93.17
2022-10-17T05:27:00.708Z,93.17
2022-10-17T05:28:00.694Z,93.17
2022-10-17T05:29:00.743Z,93.17
2022-10-17T05:30:00.665Z,93.27
2022-10-17T05:31:00.668Z,93.27
2022-10-17T05:33:00.627Z,93.27
2022-10-17T05:34:00.608Z,93.27
2022-10-17T05:35:00.598Z,93.27
2022-10-17T05:36:00.598Z,93.17
2022-10-17T05:37:00.570Z,93.17
2022-10-17T05:38:00.563Z,93.07
2022-10-17T05:39:00.549Z,93.07
2022-10-17T05:40:00.529Z,93.07
2022-10-17T05:41:00.539Z,92.97
2022-10-17T05:42:00.499Z,92.97
2022-10-17T05:43:00.498Z,92.97
2022-10-17T05:44:03.173Z,92.86
2022-10-17T05:45:01.471Z,92.77
2022-10-17T05:46:00.472Z,92.77
2022-10-17T05:47:00.440Z,92.86
2022-10-17T05:48:00.420Z,92.77
2022-10-17T05:49:00.421Z,92.77
2022-10-17T05:50:00.400Z,92.77
2022-10-17T05:51:00.402Z,92.77
2022-10-17T05:52:00.376Z,92.77
2022-10-17T05:53:00.362Z,92.77
2022-10-17T05:54:00.345Z,92.77
2022-10-17T05:55:00.333Z,92.77
2022-10-17T05:56:00.333Z,92.86
2022-10-17T05:57:00.304Z,92.86
2022-10-17T05:58:00.293Z,92.86
2022-10-17T05:59:01.196Z,92.97
2022-10-17T06:00:00.264Z,92.97
2022-10-17T06:01:00.273Z,92.97
2022-10-17T06:02:00.306Z,92.97
2022-10-17T06:03:00.226Z,92.97
2022-10-17T06:04:00.214Z,92.86
2022-10-17T06:05:00.206Z,92.86
2022-10-17T06:06:00.263Z,92.77
2022-10-17T06:07:00.184Z,92.86
2022-10-17T06:08:01.980Z,92.77
2022-10-17T06:09:00.146Z,92.77
2022-10-17T06:10:00.175Z,92.77
2022-10-17T06:11:00.135Z,92.77
2022-10-17T06:12:00.106Z,92.77
2022-10-17T06:13:00.098Z,92.77
2022-10-17T06:14:00.081Z,92.77
2022-10-17T06:15:00.111Z,92.77
2022-10-17T06:16:00.050Z,92.77
2022-10-17T06:17:00.036Z,92.86
2022-10-17T06:18:00.028Z,92.86
2022-10-17T06:19:00.009Z,92.86
2022-10-17T06:20:00.007Z,92.86
2022-10-17T06:20:59.989Z,92.77
2022-10-17T06:21:59.967Z,92.77
2022-10-17T06:22:59.958Z,92.77
2022-10-17T06:23:59.940Z,92.77
2022-10-17T06:24:59.947Z,92.77
2022-10-17T06:25:59.918Z,92.86
2022-10-17T06:26:59.901Z,92.97
2022-10-17T06:27:59.897Z,92.86
2022-10-17T06:28:59.990Z,92.77
2022-10-17T06:29:59.880Z,92.66
2022-10-17T06:30:59.857Z,92.57
2022-10-17T06:31:59.830Z,92.57
2022-10-17T06:32:59.821Z,92.46
2022-10-17T06:33:59.811Z,92.46
2022-10-17T06:34:59.824Z,92.36
2022-10-17T06:35:59.781Z,92.36
2022-10-17T06:36:59.769Z,92.26
2022-10-17T06:37:59.759Z,92.16
2022-10-17T06:38:59.744Z,92.02
2022-10-17T06:39:59.732Z,92.02
2022-10-17T06:40:59.732Z,91.91
2022-10-17T06:41:59.702Z,91.82
2022-10-17T06:42:59.683Z,91.82
2022-10-17T06:43:59.680Z,91.71
2022-10-17T06:44:59.663Z,91.61
2022-10-17T06:45:59.673Z,91.71
2022-10-17T06:46:59.640Z,91.61
2022-10-17T06:47:59.631Z,91.51
2022-10-17T06:48:59.608Z,91.21
2022-10-17T06:49:59.614Z,91.31
2022-10-17T06:50:59.584Z,91.21
2022-10-17T06:51:59.573Z,91.21
2022-10-17T06:52:59.580Z,91.11
2022-10-17T06:53:59.545Z,91.01
2022-10-17T06:54:59.548Z,91.11
2022-10-17T06:55:59.523Z,91.01
2022-10-17T06:56:59.496Z,91.01
2022-10-17T06:57:59.495Z,90.97
2022-10-17T06:58:59.475Z,91.01
2022-10-17T06:59:59.478Z,90.91
2022-10-17T07:01:00.941Z,90.97
2022-10-17T07:01:59.437Z,90.91
2022-10-17T07:02:59.416Z,90.81
2022-10-17T07:03:59.406Z,90.66
2022-10-17T07:04:59.407Z,90.56
2022-10-17T07:05:59.386Z,90.46
2022-10-17T07:07:59.357Z,90.16
2022-10-17T07:08:59.339Z,90.16
2022-10-17T07:09:59.346Z,90.06
2022-10-17T07:10:59.308Z,89.95
2022-10-17T07:11:59.308Z,89.86
2022-10-17T07:12:59.288Z,89.71
2022-10-17T07:13:59.280Z,89.51
2022-10-17T07:14:59.270Z,89.51
2022-10-17T07:15:59.255Z,89.51
2022-10-17T07:16:59.239Z,89.31
2022-10-17T07:17:59.220Z,89.31
2022-10-17T07:18:59.200Z,89.11
2022-10-17T07:19:59.211Z,89.01
2022-10-17T07:20:59.180Z,88.90
2022-10-17T07:21:59.170Z,88.70
2022-10-17T07:22:59.150Z,88.70
2022-10-17T07:23:59.141Z,88.60
2022-10-17T07:24:59.131Z,88.66
2022-10-17T07:25:59.132Z,88.46
2022-10-17T07:26:59.099Z,88.46
2022-10-17T07:27:59.082Z,88.56
2022-10-17T07:28:59.143Z,88.46
2022-10-17T07:29:59.070Z,88.46
2022-10-17T07:30:59.062Z,88.36
2022-10-17T07:31:59.033Z,88.26
2022-10-17T07:32:59.014Z,88.26
2022-10-17T07:33:59.011Z,88.26
2022-10-17T07:34:58.994Z,88.16
2022-10-17T07:35:59.007Z,87.85
2022-10-17T07:36:58.964Z,87.85
2022-10-17T07:37:58.954Z,87.55
2022-10-17T07:38:58.934Z,87.55
2022-10-17T07:39:58.934Z,87.82
2022-10-17T07:40:58.934Z,87.92
2022-10-17T07:41:58.913Z,87.62
2022-10-17T07:42:58.898Z,87.51
2022-10-17T07:43:58.875Z,87.45
2022-10-17T07:44:58.855Z,87.41
2022-10-17T07:45:58.866Z,87.41
2022-10-17T07:46:58.835Z,87.31
2022-10-17T07:47:58.830Z,87.41
2022-10-17T07:48:58.808Z,87.11
2022-10-17T07:49:58.824Z,87.11
2022-10-17T07:50:58.786Z,87.31
2022-10-17T07:51:58.780Z,87.01
2022-10-17T07:52:58.759Z,86.81
2022-10-17T07:53:58.748Z,86.71
2022-10-17T07:54:58.749Z,86.71
2022-10-17T07:55:58.721Z,86.71
2022-10-17T07:56:58.708Z,86.51
2022-10-17T07:57:58.689Z,86.36
2022-10-17T07:58:59.864Z,86.16
2022-10-17T07:59:58.680Z,86.16
2022-10-17T08:00:58.757Z,86.36
2022-10-17T08:01:58.640Z,86.36
2022-10-17T08:02:58.619Z,86.26
2022-10-17T08:03:58.620Z,86.16
2022-10-17T08:04:58.621Z,86.16
2022-10-17T08:05:58.592Z,86.26
2022-10-17T08:07:11.678Z,86.12
2022-10-17T08:07:59.560Z,85.72
2022-10-17T08:08:58.542Z,85.11
2022-10-17T08:09:58.634Z,85.11
2022-10-17T08:10:58.533Z,85.28
2022-10-17T08:11:58.512Z,84.88
2022-10-17T08:12:58.492Z,84.77
2022-10-17T08:13:58.486Z,85.08
2022-10-17T08:14:58.473Z,84.37
2022-10-17T08:15:58.480Z,84.27
2022-10-17T08:16:58.441Z,84.37
2022-10-17T08:17:58.431Z,84.27
2022-10-17T08:18:58.437Z,84.13
2022-10-17T08:19:58.404Z,83.43
2022-10-17T08:21:00.166Z,83.43
2022-10-17T08:21:58.375Z,83.12
2022-10-17T08:22:58.363Z,83.23
2022-10-17T08:23:58.362Z,83.43
2022-10-17T08:24:58.355Z,83.03
2022-10-17T08:25:58.330Z,83.03
2022-10-17T08:26:58.309Z,82.72
2022-10-17T08:27:58.330Z,82.78
2022-10-17T08:28:58.323Z,82.68
2022-10-17T08:29:58.266Z,82.08
2022-10-17T08:30:58.266Z,81.98
2022-10-17T08:32:01.128Z,82.18
2022-10-17T08:32:58.227Z,82.48
2022-10-17T08:33:58.217Z,81.68
2022-10-17T08:34:58.197Z,81.78
2022-10-17T08:35:58.209Z,81.58
2022-10-17T08:36:58.190Z,81.78
2022-10-17T08:37:58.159Z,82.18
2022-10-17T08:38:58.150Z,81.68
2022-10-17T08:39:58.138Z,82.08
2022-10-17T08:40:58.139Z,81.98
2022-10-17T08:41:58.110Z,82.18
2022-10-17T08:42:58.091Z,81.78
2022-10-17T08:43:58.080Z,81.98
2022-10-17T08:44:58.069Z,81.98
2022-10-17T08:45:58.071Z,82.08
2022-10-17T08:46:58.031Z,82.08
2022-10-17T08:47:58.031Z,82.48
2022-10-17T08:48:58.012Z,82.89
2022-10-17T08:49:58.002Z,82.48
2022-10-17T08:50:58.001Z,82.28
2022-10-17T08:51:57.972Z,82.18
2022-10-17T08:52:57.954Z,81.98
2022-10-17T08:53:57.950Z,82.38
2022-10-17T08:54:57.933Z,82.18
2022-10-17T08:55:57.934Z,82.08
2022-10-17T08:56:57.903Z,82.18
2022-10-17T08:57:57.894Z,82.89
2022-10-17T08:58:57.873Z,82.89
2022-10-17T08:59:57.866Z,82.98
2022-10-17T09:00:57.864Z,82.95
2022-10-17T09:01:57.844Z,82.48
2022-10-17T09:02:57.858Z,81.98
2022-10-17T09:03:57.814Z,82.14
2022-10-17T09:04:57.808Z,82.04
2022-10-17T09:05:57.807Z,82.34
2022-10-17T09:06:57.774Z,82.54
2022-10-17T09:07:57.765Z,82.34
2022-10-17T09:08:57.746Z,82.04
2022-10-17T09:09:57.736Z,81.54
2022-10-17T09:10:57.736Z,81.74
2022-10-17T09:11:57.713Z,81.60
2022-10-17T09:12:57.686Z,81.40
2022-10-17T09:13:57.688Z,81.50
2022-10-17T09:14:57.667Z,81.16
2022-10-17T09:15:57.678Z,80.96
2022-10-17T09:16:57.641Z,81.06
2022-10-17T09:17:57.629Z,80.56
2022-10-17T09:18:57.617Z,81.02
2022-10-17T09:19:57.607Z,80.42
2022-10-17T09:20:57.608Z,80.52
2022-10-17T09:21:57.579Z,80.52
2022-10-17T09:24:09.156Z,80.48
2022-10-17T09:24:58.531Z,80.38
2022-10-17T09:25:57.540Z,80.38
2022-10-17T09:26:57.510Z,80.38
2022-10-17T09:27:57.500Z,79.98
2022-10-17T09:28:57.538Z,79.88
2022-10-17T09:29:57.472Z,80.28
2022-10-17T09:30:57.476Z,80.48
2022-10-17T09:32:57.431Z,80.02
2022-10-17T09:33:57.414Z,80.12
2022-10-17T09:34:57.401Z,79.72
2022-10-17T09:35:57.404Z,79.82
2022-10-17T09:36:57.373Z,79.82
2022-10-17T09:37:57.371Z,79.62
2022-10-17T09:38:57.343Z,80.16
2022-10-17T09:39:57.343Z,79.46
2022-10-17T09:40:57.397Z,79.86
2022-10-17T09:41:57.314Z,80.26
2022-10-17T09:42:57.295Z,79.75
2022-10-17T09:43:57.293Z,79.36
2022-10-17T09:44:57.265Z,79.55
2022-10-17T09:45:57.285Z,79.66
2022-10-17T09:46:57.237Z,80.22
2022-10-17T09:47:59.502Z,79.82
2022-10-17T09:48:57.239Z,79.72
2022-10-17T09:49:57.207Z,80.02
2022-10-17T09:51:08.304Z,80.22
2022-10-17T09:51:58.178Z,80.12
2022-10-17T09:52:57.166Z,80.22
2022-10-17T09:53:57.157Z,79.66
2022-10-17T09:54:57.140Z,79.96
2022-10-17T09:55:57.150Z,80.06
2022-10-17T09:56:57.108Z,79.86
2022-10-17T09:57:57.099Z,80.46
2022-10-17T09:58:57.085Z,79.75
2022-10-17T09:59:57.069Z,80.46
2022-10-17T10:00:57.127Z,80.56
2022-10-17T10:01:57.048Z,80.26
2022-10-17T10:02:57.034Z,80.86
2022-10-17T10:03:57.020Z,80.76
2022-10-17T10:05:04.219Z,79.86
2022-10-17T10:05:58.010Z,80.26
2022-10-17T10:06:56.972Z,80.26
2022-10-17T10:07:56.971Z,80.36
2022-10-17T10:08:56.952Z,80.66
2022-10-17T10:09:56.946Z,80.36
2022-10-17T10:10:56.942Z,80.66
2022-10-17T10:11:56.925Z,80.56
2022-10-17T10:12:56.894Z,81.16
2022-10-17T10:13:56.893Z,80.70
2022-10-17T10:14:56.874Z,80.80
2022-10-17T10:15:56.885Z,81.30
2022-10-17T10:16:56.843Z,80.90
2022-10-17T10:17:56.834Z,80.86
2022-10-17T10:18:56.814Z,80.96
2022-10-17T10:19:56.805Z,81.06
2022-10-17T10:20:56.806Z,80.86
2022-10-17T10:21:56.794Z,80.46
2022-10-17T10:22:58.262Z,80.26
2022-10-17T10:23:56.756Z,80.56
2022-10-17T10:24:56.736Z,80.46
2022-10-17T10:25:56.747Z,80.22
2022-10-17T10:26:56.713Z,79.92
2022-10-17T10:27:59.340Z,80.22
2022-10-17T10:28:56.688Z,80.22
2022-10-17T10:29:56.687Z,80.12
2022-10-17T10:30:56.678Z,80.22
2022-10-17T10:31:56.649Z,80.12
2022-10-17T10:32:56.627Z,80.02
2022-10-17T10:33:57.586Z,79.62
2022-10-17T10:34:56.609Z,79.92
2022-10-17T10:35:56.619Z,79.72
2022-10-17T10:36:56.581Z,79.82
2022-10-17T10:37:56.570Z,80.22
2022-10-17T10:38:57.155Z,79.92
2022-10-17T10:39:56.546Z,80.22
2022-10-17T10:40:56.540Z,80.02
2022-10-17T10:41:56.519Z,79.98
2022-10-17T10:42:57.740Z,79.78
2022-10-17T10:43:56.514Z,79.78
2022-10-17T10:44:56.472Z,79.58
2022-10-17T10:45:56.482Z,79.38
2022-10-17T10:46:56.449Z,79.38
2022-10-17T10:47:56.442Z,79.58
2022-10-17T10:48:56.439Z,79.88
2022-10-17T10:49:56.412Z,79.88
2022-10-17T10:51:00.377Z,79.88
2022-10-17T10:52:03.422Z,79.58
2022-10-17T10:52:56.374Z,79.68
2022-10-17T10:53:56.353Z,79.28
2022-10-17T10:54:56.350Z,79.58
2022-10-17T10:55:56.343Z,79.42
2022-10-17T10:56:56.316Z,79.72
2022-10-17T10:57:56.306Z,79.72
2022-10-17T10:58:56.295Z,80.02
2022-10-17T10:59:56.473Z,80.32
2022-10-17T11:00:56.357Z,80.52
2022-10-17T11:01:56.244Z,80.62
2022-10-17T11:02:56.236Z,80.62
2022-10-17T11:03:56.223Z,80.82
2022-10-17T11:04:56.225Z,81.02
2022-10-17T11:05:56.196Z,81.12
2022-10-17T11:06:56.186Z,81.12
2022-10-17T11:07:56.173Z,81.12
2022-10-17T11:08:56.164Z,81.23
2022-10-17T11:09:56.158Z,81.32
2022-10-17T11:10:56.134Z,81.23
2022-10-17T11:11:56.127Z,81.23
2022-10-17T11:12:56.123Z,81.42
2022-10-17T11:13:56.090Z,81.42
2022-10-17T11:14:56.103Z,81.62
2022-10-17T11:15:56.058Z,81.82
2022-10-17T11:16:56.049Z,81.82
2022-10-17T11:17:56.040Z,81.82
2022-10-17T11:18:56.019Z,81.59
2022-10-17T11:19:56.029Z,81.48
2022-10-17T11:20:56.001Z,81.68
2022-10-17T11:21:55.981Z,81.59
2022-10-17T11:22:55.970Z,81.79
2022-10-17T11:23:55.950Z,81.48
2022-10-17T11:24:55.961Z,81.68
2022-10-17T11:25:55.929Z,81.38
2022-10-17T11:26:55.921Z,81.29
2022-10-17T11:27:57.248Z,81.68
2022-10-17T11:28:55.984Z,81.88
2022-10-17T11:29:55.892Z,81.68
2022-10-17T11:30:55.864Z,81.88
2022-10-17T11:31:55.851Z,82.18
2022-10-17T11:32:55.842Z,82.59
2022-10-17T11:33:55.826Z,82.59
2022-10-17T11:34:55.833Z,82.55
2022-10-17T11:35:58.310Z,82.35
2022-10-17T11:36:55.787Z,82.39
2022-10-17T11:37:55.783Z,82.39
2022-10-17T11:38:55.762Z,82.49
2022-10-17T11:39:55.765Z,82.55
2022-10-17T11:40:55.734Z,82.45
2022-10-17T11:41:55.715Z,82.05
2022-10-17T11:42:55.707Z,81.95
2022-10-17T11:43:55.688Z,82.35
2022-10-17T11:44:55.697Z,82.15
2022-10-17T11:45:55.666Z,81.85
2022-10-17T11:46:55.657Z,81.65
2022-10-17T11:47:55.638Z,81.95
2022-10-17T11:48:55.629Z,81.91
2022-10-17T11:49:55.829Z,81.74
2022-10-17T11:52:01.132Z,81.91
2022-10-17T11:52:57.229Z,81.30
2022-10-17T11:53:55.556Z,81.30
2022-10-17T11:54:55.561Z,81.30
2022-10-17T11:55:55.529Z,81.30
2022-10-17T11:56:55.520Z,81.35
2022-10-17T11:57:55.501Z,81.65
2022-10-17T11:58:55.490Z,81.65
2022-10-17T11:59:55.499Z,81.74
2022-10-17T12:00:55.477Z,81.65
2022-10-17T12:01:55.452Z,81.85
2022-10-17T12:02:55.441Z,81.85
2022-10-17T12:03:55.453Z,81.65
2022-10-17T12:04:55.495Z,81.85
2022-10-17T12:05:55.393Z,82.49
2022-10-17T12:06:55.384Z,82.18
2022-10-17T12:07:55.373Z,82.09
2022-10-17T12:08:55.361Z,82.18
2022-10-17T12:09:55.361Z,82.29
2022-10-17T12:10:55.334Z,82.18
2022-10-17T12:11:55.322Z,82.29
2022-10-17T12:12:55.313Z,82.39
2022-10-17T12:13:55.288Z,82.59
2022-10-17T12:14:55.294Z,82.69
2022-10-17T12:15:55.265Z,83.09
2022-10-17T12:16:55.256Z,83.29
2022-10-17T12:17:55.236Z,83.49
2022-10-17T12:18:55.226Z,83.69
2022-10-17T12:19:55.226Z,83.89
2022-10-17T12:20:55.196Z,84.19
2022-10-17T12:21:55.187Z,84.53
2022-10-17T12:22:55.176Z,84.83
2022-10-17T12:23:55.157Z,84.83
2022-10-17T12:24:55.160Z,85.13
2022-10-17T12:25:57.102Z,85.24
2022-10-17T12:26:56.491Z,85.33
2022-10-17T12:27:55.099Z,85.44
2022-10-17T12:28:55.144Z,85.53
2022-10-17T12:29:55.099Z,85.94
2022-10-17T12:30:55.068Z,85.83
2022-10-17T12:31:55.051Z,85.94
2022-10-17T12:33:05.674Z,85.97
2022-10-17T12:33:56.020Z,86.33
2022-10-17T12:34:55.011Z,86.48
2022-10-17T12:35:55.020Z,86.68
2022-10-17T12:36:54.988Z,86.78
2022-10-17T12:37:58.644Z,86.78
2022-10-17T12:38:54.961Z,86.98
2022-10-17T12:39:54.942Z,87.18
2022-10-17T12:40:54.973Z,87.08
2022-10-17T12:41:54.913Z,87.18
2022-10-17T12:42:54.910Z,87.18
2022-10-17T12:43:54.906Z,86.88
2022-10-17T12:44:54.883Z,86.52
2022-10-17T12:45:54.880Z,86.62
2022-10-17T12:46:54.854Z,86.82
2022-10-17T12:47:54.833Z,86.62
2022-10-17T12:48:54.825Z,86.32
2022-10-17T12:49:56.677Z,86.42
2022-10-17T12:50:54.829Z,86.52
2022-10-17T12:51:54.785Z,86.22
2022-10-17T12:52:54.778Z,86.22
2022-10-17T12:53:54.756Z,86.22
2022-10-17T12:55:07.179Z,86.12
2022-10-17T12:55:55.726Z,86.18
2022-10-17T12:56:54.721Z,86.22
2022-10-17T12:57:54.706Z,86.28
2022-10-17T12:58:54.695Z,86.38
2022-10-17T12:59:57.895Z,86.58
2022-10-17T13:01:18.802Z,86.78